Passo Fundo, Brazil
Current Conditions -  °F | °C
As of 9:00 AM on Thursday 27 Nov 2014 (Local Time) from SBPF Reporting Station
Clear Clear  
Wind Chill: 66°   Ceiling: Unl
Heat Index: 66°   Visibility: 6mi
Dew Point: 61°   Wind: 12mph
Humidity: 83%   Direction: 140°SE
Pressure: 29.97"   Gusts: NA
Location:  28.25°S, 52.42°W
Report Text: SBPF 271100Z 14010KT CAVOK 19/16 Q1015
Loading
Personal Weather Stations






























Interactive Weather Map New forecast layout! Learn more

10-Day Weather Forecast

Advertisements
Track Severe Weather on mobile